Time;durP1;ratioP1;P1;durP2;ratioP2;P2;SDS_P1;SDS_P2;PMS_P1;PMS_P2;Temp;Humidity;BMP_temperature;BMP_pressure;BME280_temperature;BME280_humidity;BME280_pressure;Samples;Min_cycle;Max_cycle;Signal;HPM_P1;HPM_P2
2023/05/16 00:00:37;;;;;;;23.35;8.63;;;;;;;12.60;57.71;100090.81;5088175;28;20426;-37
2023/05/16 00:03:05;;;;;;;22.33;6.95;;;;;;;12.55;58.28;100084.91;5087213;28;20031;-41
2023/05/16 00:05:30;;;;;;;22.92;7.05;;;;;;;12.49;58.14;100079.91;5087151;28;20051;-39
2023/05/16 00:07:56;;;;;;;21.65;6.82;;;;;;;12.47;58.51;100079.09;5086984;28;20521;-39
2023/05/16 00:10:22;;;;;;;16.52;7.30;;;;;;;12.44;58.66;100083.59;5069166;28;20048;-37
2023/05/16 00:12:50;;;;;;;21.50;6.65;;;;;;;12.40;58.67;100082.84;5086239;28;20087;-39
2023/05/16 00:15:17;;;;;;;22.10;6.68;;;;;;;12.34;59.19;100079.59;5087116;28;20515;-38
2023/05/16 00:17:46;;;;;;;15.25;6.88;;;;;;;12.36;59.22;100085.59;5069670;28;20040;-38
2023/05/16 00:20:13;;;;;;;19.70;7.45;;;;;;;12.30;59.90;100078.84;5087630;28;20447;-38
2023/05/16 00:22:39;;;;;;;23.27;6.80;;;;;;;12.25;60.15;100081.59;5087289;28;20043;-39
2023/05/16 00:25:07;;;;;;;20.88;6.25;;;;;;;12.22;59.91;100068.69;5087992;28;20126;-38
2023/05/16 00:27:35;;;;;;;20.73;7.35;;;;;;;12.06;60.43;100054.50;5073305;28;20044;-38
2023/05/16 00:30:02;;;;;;;19.77;6.90;;;;;;;11.98;60.53;100051.31;5090605;28;20036;-38
2023/05/16 00:32:32;;;;;;;26.67;8.60;;;;;;;12.11;60.73;100067.34;5073712;28;20123;-38
2023/05/16 00:35:00;;;;;;;25.65;8.13;;;;;;;12.07;61.10;100071.84;5057044;28;20039;-38
2023/05/16 00:37:26;;;;;;;26.38;7.35;;;;;;;12.03;61.14;100067.63;5091649;28;20040;-38
2023/05/16 00:39:53;;;;;;;26.45;8.30;;;;;;;11.99;61.24;100066.00;5091558;28;20108;-38
2023/05/16 00:42:20;;;;;;;21.15;7.97;;;;;;;11.95;61.13;100061.81;5072853;28;20040;-39
2023/05/16 00:44:47;;;;;;;26.02;7.57;;;;;;;11.89;61.75;100068.09;5072017;28;20043;-38
2023/05/16 00:47:15;;;;;;;25.67;8.30;;;;;;;11.89;62.01;100062.88;5089912;28;20036;-38
2023/05/16 00:49:41;;;;;;;22.55;7.25;;;;;;;11.87;62.36;100061.25;5088624;28;20036;-39
2023/05/16 00:52:07;;;;;;;26.20;7.57;;;;;;;11.84;62.40;100062.19;5085775;28;20105;-38
2023/05/16 00:54:33;;;;;;;23.92;8.68;;;;;;;11.82;62.57;100063.16;5071252;28;20035;-39
2023/05/16 00:56:59;;;;;;;21.83;7.45;;;;;;;11.78;62.40;100056.31;5088980;28;20097;-38
2023/05/16 00:59:25;;;;;;;21.92;7.78;;;;;;;11.76;63.15;100060.75;5089504;28;20044;-37
2023/05/16 01:01:51;;;;;;;25.10;8.32;;;;;;;11.74;63.44;100062.53;5089760;28;20047;-38
2023/05/16 01:04:19;;;;;;;25.08;9.50;;;;;;;11.63;63.31;100038.56;5072380;28;20558;-38
2023/05/16 01:06:45;;;;;;;24.50;8.18;;;;;;;11.73;63.93;100055.63;5090463;28;20615;-38
2023/05/16 01:09:11;;;;;;;23.63;8.38;;;;;;;11.73;63.90;100053.00;5072464;28;20062;-38
2023/05/16 01:11:51;;;;;;;23.75;7.32;;;;;;;11.70;63.82;100048.75;5073153;28;20115;-39
2023/05/16 01:14:51;;;;;;;24.45;7.97;;;;;;;11.70;64.15;100050.50;5056274;28;20036;-38
2023/05/16 01:17:40;;;;;;;23.60;7.50;;;;;;;11.67;64.04;100048.00;5056063;28;20540;-39
2023/05/16 01:20:14;;;;;;;29.65;8.18;;;;;;;11.67;64.34;100053.19;5030914;28;20067;-38
2023/05/16 01:22:50;;;;;;;27.27;7.72;;;;;;;11.66;64.41;100064.53;5072579;28;20044;-39
2023/05/16 01:25:30;;;;;;;26.42;8.27;;;;;;;11.61;64.44;100077.69;5052366;28;20037;-39
2023/05/16 01:27:58;;;;;;;19.55;7.18;;;;;;;11.40;65.08;100037.56;5039387;28;20044;-38
2023/05/16 01:30:24;;;;;;;28.90;7.38;;;;;;;11.54;64.83;100062.31;5080731;28;20040;-38
2023/05/16 01:32:50;;;;;;;27.15;6.93;;;;;;;11.61;64.97;100080.31;5054471;28;20039;-38
2023/05/16 01:35:16;;;;;;;24.52;8.23;;;;;;;11.62;65.03;100071.56;5071288;28;20048;-38
2023/05/16 01:38:07;;;;;;;23.13;7.85;;;;;;;11.63;65.06;100069.81;5071550;28;20622;-38
2023/05/16 01:41:00;;;;;;;31.30;7.53;;;;;;;11.63;64.80;100075.88;5055292;28;20052;-38
2023/05/16 01:43:34;;;;;;;25.67;7.78;;;;;;;11.61;64.73;100076.84;5089804;28;20462;-38
2023/05/16 01:46:09;;;;;;;18.02;7.05;;;;;;;11.58;65.22;100080.38;5072295;28;20490;-38
2023/05/16 01:49:12;;;;;;;17.88;7.20;;;;;;;11.58;65.48;100072.56;5090356;28;20043;-38
2023/05/16 01:51:39;;;;;;;25.60;9.88;;;;;;;11.55;64.35;100077.88;5063706;28;20068;-39
2023/05/16 01:54:10;;;;;;;20.92;8.90;;;;;;;11.56;64.54;100074.38;5054460;28;20052;-39
2023/05/16 01:56:36;;;;;;;27.95;10.90;;;;;;;11.56;64.67;100074.38;5090327;28;20036;-38
2023/05/16 01:59:03;;;;;;;24.02;10.50;;;;;;;11.56;64.14;100076.13;5054925;28;20093;-38
2023/05/16 02:01:31;;;;;;;29.50;10.32;;;;;;;11.54;63.90;100070.13;5072001;28;20097;-38
2023/05/16 02:03:58;;;;;;;17.52;9.88;;;;;;;11.54;63.34;100073.56;5054738;28;20044;-39
2023/05/16 02:06:27;;;;;;;23.40;10.40;;;;;;;11.56;63.14;100076.13;5089510;28;20028;-38
2023/05/16 02:08:56;;;;;;;25.80;10.02;;;;;;;11.38;63.58;100046.31;5071723;28;20055;-38
2023/05/16 02:11:22;;;;;;;23.30;10.07;;;;;;;11.54;62.97;100075.31;5072214;28;20086;-39
2023/05/16 02:13:48;;;;;;;23.85;10.48;;;;;;;11.53;63.10;100074.47;5070739;28;20454;-39
2023/05/16 02:16:14;;;;;;;28.08;10.85;;;;;;;11.52;63.18;100075.38;5088616;28;20032;-38
2023/05/16 02:18:41;;;;;;;27.77;10.32;;;;;;;11.53;62.76;100082.28;5071677;28;20048;-37
2023/05/16 02:21:27;;;;;;;29.45;10.50;;;;;;;11.53;62.79;100079.69;5060948;28;20553;-38
2023/05/16 02:23:52;;;;;;;26.65;10.45;;;;;;;11.55;62.49;100088.31;5089245;28;20040;-38
2023/05/16 02:26:19;;;;;;;26.95;10.38;;;;;;;11.57;62.48;100083.88;5071369;28;20048;-38
2023/05/16 02:28:45;;;;;;;25.92;10.80;;;;;;;11.60;62.35;100089.00;5088971;28;20498;-39
2023/05/16 02:31:12;;;;;;;23.35;9.73;;;;;;;11.62;62.33;100088.97;5089665;28;20044;-38
2023/05/16 02:33:38;;;;;;;28.20;10.90;;;;;;;11.60;62.95;100086.41;5071840;28;20038;-39
2023/05/16 02:36:04;;;;;;;22.95;10.10;;;;;;;11.63;62.74;100085.44;5083605;28;20112;-39
2023/05/16 02:38:30;;;;;;;24.70;9.65;;;;;;;11.66;62.23;100088.81;5078793;28;20051;-38
2023/05/16 02:40:56;;;;;;;23.25;10.50;;;;;;;11.69;62.52;100086.09;5089257;28;20511;-39
2023/05/16 02:43:22;;;;;;;18.00;8.93;;;;;;;11.73;62.47;100084.25;5070408;28;20032;-39
2023/05/16 02:45:48;;;;;;;21.20;9.85;;;;;;;11.68;62.33;100087.00;5053868;28;20053;-38
2023/05/16 02:48:16;;;;;;;18.25;8.70;;;;;;;11.76;61.88;100097.22;5069655;28;20040;-39
2023/05/16 02:50:41;;;;;;;28.95;9.35;;;;;;;11.79;62.04;100097.09;5088311;28;20651;-38
2023/05/16 02:53:07;;;;;;;26.95;9.07;;;;;;;11.78;62.00;100088.44;5069722;28;20085;-38
2023/05/16 02:55:33;;;;;;;19.65;10.48;;;;;;;11.83;61.94;100088.28;5069799;28;20035;-38
2023/05/16 02:58:00;;;;;;;18.77;9.00;;;;;;;11.85;62.32;100096.91;5088034;28;20518;-39
2023/05/16 03:00:25;;;;;;;22.08;8.93;;;;;;;11.77;61.92;100070.25;5088676;28;20044;-38
2023/05/16 03:02:51;;;;;;;23.48;9.50;;;;;;;11.95;61.70;100090.47;5070855;28;20047;-39
2023/05/16 03:05:17;;;;;;;22.25;8.73;;;;;;;12.00;61.23;100085.09;5053703;28;20036;-39
2023/05/16 03:07:44;;;;;;;20.05;8.65;;;;;;;12.04;61.08;100092.78;5088888;28;20040;-39
2023/05/16 03:10:10;;;;;;;23.27;9.88;;;;;;;12.07;61.79;100079.66;5088905;28;20047;-38
2023/05/16 03:12:37;;;;;;;22.27;8.52;;;;;;;12.09;61.29;100075.22;5088975;28;20081;-39
2023/05/16 03:15:04;;;;;;;20.50;8.57;;;;;;;12.21;61.36;100087.00;5088001;28;20048;-38
2023/05/16 03:17:31;;;;;;;17.85;8.63;;;;;;;12.24;61.75;100082.53;5070750;28;20039;-40
2023/05/16 03:19:57;;;;;;;17.48;7.45;;;;;;;12.31;61.70;100089.22;5070476;28;20072;-37
2023/05/16 03:22:23;;;;;;;20.23;8.45;;;;;;;12.40;61.18;100090.69;5070506;28;20696;-39
2023/05/16 03:24:49;;;;;;;17.95;8.40;;;;;;;12.48;60.42;100093.00;5069898;28;20507;-39
2023/05/16 03:27:15;;;;;;;17.15;8.20;;;;;;;12.56;60.32;100098.81;5088333;28;20453;-39
2023/05/16 03:29:41;;;;;;;16.05;8.38;;;;;;;12.63;60.49;100097.66;5087817;28;20050;-39
2023/05/16 03:32:09;;;;;;;13.50;7.22;;;;;;;12.71;60.54;100083.44;5088791;28;20426;-39
2023/05/16 03:34:35;;;;;;;19.67;7.75;;;;;;;12.85;59.41;100092.50;5088523;28;20135;-39
2023/05/16 03:37:01;;;;;;;20.48;7.50;;;;;;;12.80;59.04;100064.00;5069604;28;20083;-38
2023/05/16 03:39:27;;;;;;;18.77;6.60;;;;;;;13.04;58.55;100089.16;5070196;28;20487;-39
2023/05/16 03:41:55;;;;;;;19.63;7.03;;;;;;;13.13;58.83;100095.84;5069959;28;20043;-37
2023/05/16 03:44:21;;;;;;;17.30;5.50;;;;;;;13.24;58.65;100098.03;5087902;28;20568;-38
2023/05/16 03:46:47;;;;;;;12.02;5.57;;;;;;;13.23;57.21;100065.84;5088082;28;20044;-38
2023/05/16 03:49:13;;;;;;;11.50;4.55;;;;;;;13.51;56.31;100091.72;5070274;28;20040;-39
2023/05/16 03:51:39;;;;;;;21.23;8.25;;;;;;;13.67;55.48;100098.03;5087556;28;20066;-38
2023/05/16 03:54:05;;;;;;;12.43;5.13;;;;;;;13.77;55.07;100090.66;5069186;28;20146;-39
2023/05/16 03:56:31;;;;;;;12.23;4.90;;;;;;;13.89;54.89;100098.00;5053216;28;20515;-38
2023/05/16 03:58:57;;;;;;;12.57;5.30;;;;;;;13.97;54.53;100094.16;5087009;28;20503;-38
2023/05/16 04:01:23;;;;;;;17.95;4.93;;;;;;;14.03;54.32;100077.34;5087766;28;20055;-38
2023/05/16 04:03:49;;;;;;;11.60;3.72;;;;;;;14.17;53.63;100084.63;5069858;28;20070;-39
2023/05/16 04:06:16;;;;;;;13.40;4.32;;;;;;;14.27;52.77;100092.03;5068833;28;20040;-39
2023/05/16 04:08:43;;;;;;;6.75;3.78;;;;;;;14.29;52.29;100068.41;5049706;28;20067;-38
2023/05/16 04:11:10;;;;;;;9.60;3.50;;;;;;;14.50;51.34;100085.81;5050072;28;20044;-39
2023/05/16 04:13:35;;;;;;;7.00;3.38;;;;;;;14.64;50.79;100098.31;5049804;28;20051;-38
2023/05/16 04:16:01;;;;;;;6.60;3.22;;;;;;;14.73;50.49;100087.41;5068770;28;20044;-40
2023/05/16 04:18:27;;;;;;;11.68;3.15;;;;;;;14.82;49.97;100092.22;5087546;28;20035;-38
2023/05/16 04:20:53;;;;;;;7.20;3.20;;;;;;;14.92;49.60;100103.13;5069768;28;20509;-41
2023/05/16 04:23:19;;;;;;;6.28;3.10;;;;;;;15.00;49.34;100101.03;5088053;28;20040;-39
2023/05/16 04:25:45;;;;;;;10.30;2.90;;;;;;;15.00;48.54;100093.19;5069258;28;20047;-38
2023/05/16 04:28:11;;;;;;;7.70;3.13;;;;;;;15.22;48.20;100113.06;5069421;28;20461;-38
2023/05/16 04:30:37;;;;;;;7.55;2.78;;;;;;;15.34;48.17;100114.25;5087466;28;20043;-39
2023/05/16 04:33:03;;;;;;;10.30;3.05;;;;;;;15.44;48.10;100120.75;5036633;28;20922;-38
2023/05/16 04:35:29;;;;;;;6.10;2.80;;;;;;;15.52;47.90;100112.56;5087517;28;20044;-38
2023/05/16 04:37:55;;;;;;;6.20;2.58;;;;;;;15.60;47.72;100118.28;5086524;28;20035;-38
2023/05/16 04:40:23;;;;;;;10.15;3.00;;;;;;;15.67;47.09;100111.84;5085131;28;20109;-37
2023/05/16 04:42:49;;;;;;;9.77;2.90;;;;;;;15.75;47.31;100116.72;5068698;28;20548;-38
2023/05/16 04:45:15;;;;;;;10.68;2.85;;;;;;;15.78;47.02;100112.16;5081029;28;20075;-38
2023/05/16 04:47:41;;;;;;;5.72;2.50;;;;;;;15.86;45.83;100119.69;5066321;28;20376;-40
2023/05/16 04:50:07;;;;;;;5.95;2.58;;;;;;;15.90;45.04;100129.09;5087763;28;20028;-39
2023/05/16 04:52:34;;;;;;;9.25;2.67;;;;;;;15.91;44.40;100122.91;5052120;28;20465;-38
2023/05/16 04:55:00;;;;;;;4.25;2.08;;;;;;;15.92;43.79;100128.06;5085101;28;20040;-38
2023/05/16 04:57:26;;;;;;;3.10;2.20;;;;;;;15.98;43.29;100125.16;5068633;28;20133;-38
2023/05/16 04:59:52;;;;;;;7.25;2.05;;;;;;;15.97;42.34;100131.31;5089249;28;20503;-39
2023/05/16 05:02:18;;;;;;;5.32;2.15;;;;;;;15.98;42.05;100129.53;5052674;28;20052;-39
2023/05/16 05:04:44;;;;;;;5.55;2.05;;;;;;;16.04;42.11;100142.34;5050465;28;20587;-40
2023/05/16 05:07:10;;;;;;;7.43;2.42;;;;;;;16.07;41.71;100137.78;5071547;28;20036;-39
2023/05/16 05:09:36;;;;;;;7.78;2.42;;;;;;;15.95;41.58;100113.97;5068039;28;20515;-40
2023/05/16 05:12:02;;;;;;;7.40;2.38;;;;;;;16.24;41.24;100147.47;5084484;28;20059;-39
2023/05/16 05:14:28;;;;;;;6.22;2.45;;;;;;;16.32;41.10;100145.31;5090638;28;20401;-40
2023/05/16 05:16:54;;;;;;;7.63;2.28;;;;;;;16.37;40.73;100151.19;5090447;28;20032;-39
2023/05/16 05:19:20;;;;;;;5.63;1.90;;;;;;;16.35;39.94;100134.66;5055958;28;20514;-38
2023/05/16 05:21:46;;;;;;;9.02;2.22;;;;;;;16.41;40.04;100134.34;5091020;28;20032;-38
2023/05/16 05:24:12;;;;;;;3.55;2.35;;;;;;;16.48;39.95;100151.50;5044932;28;20036;-39
2023/05/16 05:26:38;;;;;;;7.15;2.00;;;;;;;16.54;39.47;100151.16;5089672;28;20044;-39
2023/05/16 05:29:04;;;;;;;5.93;2.30;;;;;;;16.56;39.41;100142.34;5089557;28;20048;-40
2023/05/16 05:31:32;;;;;;;10.50;2.65;;;;;;;16.64;39.24;100150.72;5090164;28;20070;-39
2023/05/16 05:33:58;;;;;;;6.78;2.65;;;;;;;16.74;39.38;100152.78;5064553;28;20088;-38
2023/05/16 05:36:24;;;;;;;9.25;2.10;;;;;;;16.81;38.99;100156.78;5077015;28;20036;-39
2023/05/16 05:38:50;;;;;;;5.68;1.98;;;;;;;16.86;38.78;100149.50;5096282;28;20041;-39
2023/05/16 05:41:16;;;;;;;4.38;1.95;;;;;;;16.70;38.75;100114.47;5097827;28;20164;-38
2023/05/16 05:43:42;;;;;;;3.72;1.80;;;;;;;17.06;38.70;100155.50;5087993;28;20060;-39
2023/05/16 05:46:08;;;;;;;6.38;2.97;;;;;;;17.23;38.60;100158.06;5088819;28;20606;-39
2023/05/16 05:48:34;;;;;;;3.72;1.60;;;;;;;17.31;38.21;100161.13;5061622;28;20089;-39
2023/05/16 05:51:00;;;;;;;3.00;1.60;;;;;;;17.17;37.86;100137.34;5100735;28;20039;-39
2023/05/16 05:53:26;;;;;;;3.88;1.85;;;;;;;17.37;37.46;100158.19;5058987;28;20574;-39
2023/05/16 05:55:51;;;;;;;6.03;2.00;;;;;;;17.34;37.11;100159.19;5101134;28;20052;-39
2023/05/16 05:58:18;;;;;;;6.80;1.85;;;;;;;17.33;37.03;100156.63;5100003;28;20430;-40
2023/05/16 06:00:43;;;;;;;6.05;1.70;;;;;;;17.45;37.22;100153.31;5102381;28;20043;-39
2023/05/16 06:03:09;;;;;;;14.05;3.08;;;;;;;17.70;37.40;100158.09;5089543;28;20046;-56
2023/05/16 06:05:35;;;;;;;11.05;3.08;;;;;;;18.00;37.54;100159.03;5077554;28;20455;-39
2023/05/16 06:08:01;;;;;;;5.20;1.65;;;;;;;18.21;36.88;100160.38;5089912;28;20044;-39
2023/05/16 06:10:27;;;;;;;16.00;3.55;;;;;;;18.44;36.47;100158.19;5068794;28;20040;-38
2023/05/16 06:12:53;;;;;;;8.18;1.58;;;;;;;18.69;36.10;100161.09;5090867;28;20104;-39
2023/05/16 06:15:19;;;;;;;12.02;4.20;;;;;;;18.77;35.50;100166.75;5097379;28;20042;-40
2023/05/16 06:17:45;;;;;;;26.10;5.65;;;;;;;19.01;35.52;100169.69;5081184;28;20035;-39
2023/05/16 06:20:11;;;;;;;6.55;1.65;;;;;;;19.17;34.95;100146.72;5080518;28;20502;-39
2023/05/16 06:22:37;;;;;;;4.50;1.70;;;;;;;19.43;34.22;100182.84;5079356;28;20479;-39
2023/05/16 06:25:03;;;;;;;3.88;1.65;;;;;;;19.43;33.82;100153.84;5095440;28;20035;-38
2023/05/16 06:27:31;;;;;;;6.18;1.75;;;;;;;19.95;33.56;100166.34;5088042;28;20036;-43
2023/05/16 06:29:57;;;;;;;5.63;2.00;;;;;;;20.90;33.06;100171.41;5097407;28;20036;-38
2023/05/16 06:32:23;;;;;;;6.55;1.75;;;;;;;21.98;31.65;100192.84;5061524;28;20074;-39
2023/05/16 06:34:49;;;;;;;10.18;2.30;;;;;;;22.14;30.61;100178.31;5080146;28;20040;-38
2023/05/16 06:37:16;;;;;;;5.35;1.70;;;;;;;22.49;30.05;100175.69;5075514;28;20040;-39
2023/05/16 06:39:43;;;;;;;4.18;1.40;;;;;;;22.97;29.47;100176.44;5080459;28;20048;-41
2023/05/16 06:42:09;;;;;;;6.03;2.00;;;;;;;23.41;28.73;100183.53;5062405;28;20082;-41
2023/05/16 06:44:36;;;;;;;8.55;1.65;;;;;;;24.00;28.22;100178.75;5076282;28;20038;-41
2023/05/16 06:47:02;;;;;;;5.55;2.33;;;;;;;24.76;27.68;100158.19;5074600;28;20039;-40
2023/05/16 06:49:28;;;;;;;4.82;1.80;;;;;;;25.42;26.37;100159.53;5071196;28;20106;-40
2023/05/16 06:51:54;;;;;;;8.00;2.35;;;;;;;26.38;25.64;100165.00;5101304;28;20052;-40
2023/05/16 06:54:20;;;;;;;16.88;1.90;;;;;;;27.21;24.45;100163.44;5085053;28;20063;-40
2023/05/16 06:56:46;;;;;;;6.63;2.38;;;;;;;28.14;23.39;100174.72;5086059;28;20043;-41
2023/05/16 06:59:12;;;;;;;6.20;1.52;;;;;;;28.95;22.74;100153.94;5039789;28;20533;-39
2023/05/16 07:01:38;;;;;;;3.65;1.80;;;;;;;29.98;21.64;100173.47;5078616;28;20035;-41
2023/05/16 07:04:04;;;;;;;4.05;1.55;;;;;;;30.09;20.54;100168.63;5069908;28;20051;-41
2023/05/16 07:06:30;;;;;;;5.20;1.75;;;;;;;30.98;20.63;100167.75;5088211;28;20048;-40
2023/05/16 07:08:56;;;;;;;4.85;1.83;;;;;;;32.01;19.81;100172.03;5069075;28;20138;-41
2023/05/16 07:11:22;;;;;;;3.97;1.30;;;;;;;32.86;18.65;100150.31;5062004;28;20128;-42
2023/05/16 07:13:48;;;;;;;8.88;1.95;;;;;;;33.78;17.74;100173.13;5042892;28;20451;-40
2023/05/16 07:16:14;;;;;;;3.15;1.60;;;;;;;33.48;17.19;100157.00;5085303;28;20511;-40
2023/05/16 07:18:40;;;;;;;3.85;1.90;;;;;;;32.25;17.59;100166.47;5087798;28;20127;-39
2023/05/16 07:21:06;;;;;;;5.50;2.05;;;;;;;32.25;17.90;100174.56;5087984;28;20808;-41
2023/05/16 07:23:32;;;;;;;6.72;1.73;;;;;;;33.42;17.37;100173.91;5087475;28;20097;-41
2023/05/16 07:25:58;;;;;;;4.07;1.85;;;;;;;33.12;16.77;100161.47;5087176;28;20043;-41
2023/05/16 07:28:24;;;;;;;5.40;1.90;;;;;;;32.83;17.02;100164.13;5069153;28;20048;-40
2023/05/16 07:30:50;;;;;;;5.95;1.85;;;;;;;32.28;17.10;100160.75;5086875;28;20031;-40
2023/05/16 07:33:16;;;;;;;4.10;1.40;;;;;;;32.36;17.06;100160.66;5087197;28;20036;-40
2023/05/16 07:35:42;;;;;;;4.63;1.58;;;;;;;32.97;16.75;100160.63;5057835;28;20044;-39
2023/05/16 07:38:08;;;;;;;7.78;2.72;;;;;;;33.35;16.41;100161.34;5053083;28;20097;-40
2023/05/16 07:40:34;;;;;;;5.20;1.92;;;;;;;34.08;16.42;100149.56;5051642;28;20500;-40
2023/05/16 07:43:01;;;;;;;6.43;1.50;;;;;;;34.44;15.44;100156.56;5087656;28;20043;-41
2023/05/16 07:45:27;;;;;;;3.60;1.50;;;;;;;34.93;15.10;100153.00;5087641;28;20040;-41
2023/05/16 07:47:53;;;;;;;7.72;1.40;;;;;;;36.00;14.35;100158.69;5074053;28;20395;-41
2023/05/16 07:50:19;;;;;;;7.82;1.42;;;;;;;36.57;13.61;100155.41;5108518;28;20130;-40
2023/05/16 07:52:45;;;;;;;3.13;1.38;;;;;;;37.09;13.25;100146.41;5073143;28;20118;-40
2023/05/16 07:55:13;;;;;;;5.32;1.30;;;;;;;37.49;13.18;100157.94;5063641;28;20813;-40
2023/05/16 07:57:38;;;;;;;5.15;1.40;;;;;;;38.11;12.27;100151.75;5079051;28;20035;-39
2023/05/16 08:00:05;;;;;;;3.63;1.50;;;;;;;38.08;12.17;100162.25;5082738;28;20040;-40
2023/05/16 08:02:38;;;;;;;3.22;1.38;;;;;;;38.20;12.08;100156.94;5081195;28;20154;-38
2023/05/16 08:05:04;;;;;;;4.95;1.63;;;;;;;37.68;12.14;100150.78;5069542;28;20122;-40
2023/05/16 08:07:31;;;;;;;13.02;1.60;;;;;;;37.91;12.25;100164.63;5066766;28;20044;-40
2023/05/16 08:09:56;;;;;;;7.85;1.90;;;;;;;37.92;12.66;100147.28;5086764;28;20054;-40
2023/05/16 08:12:23;;;;;;;5.32;1.92;;;;;;;38.69;12.22;100156.94;5065723;28;20036;-38
2023/05/16 08:14:49;;;;;;;4.65;1.90;;;;;;;39.12;11.83;100143.34;5087452;28;20036;-40
2023/05/16 08:17:15;;;;;;;8.13;2.42;;;;;;;38.22;11.94;100146.66;5086258;28;20093;-39
2023/05/16 08:19:41;;;;;;;9.45;6.20;;;;;;;39.13;11.84;100150.44;5084989;28;20118;-40
2023/05/16 08:22:08;;;;;;;5.65;2.70;;;;;;;39.68;11.19;100137.59;5068168;28;20474;-40
2023/05/16 08:24:34;;;;;;;4.55;1.30;;;;;;;39.88;10.94;100148.28;5087229;28;20044;-41
2023/05/16 08:27:00;;;;;;;7.18;2.10;;;;;;;38.56;11.47;100138.91;5059942;28;20040;-41
2023/05/16 08:29:26;;;;;;;3.65;1.70;;;;;;;39.18;11.13;100147.88;5051393;28;20040;-40
2023/05/16 08:31:52;;;;;;;4.25;1.40;;;;;;;39.13;10.90;100136.84;5086379;28;20043;-38
2023/05/16 08:34:18;;;;;;;4.68;1.60;;;;;;;39.35;10.67;100138.06;5092833;28;20414;-39
2023/05/16 08:36:44;;;;;;;3.70;1.20;;;;;;;38.43;10.33;100138.13;5075008;28;20453;-39
2023/05/16 08:39:10;;;;;;;8.10;1.70;;;;;;;38.57;10.73;100145.16;5089625;28;20035;-39
2023/05/16 08:41:36;;;;;;;2.95;1.40;;;;;;;38.63;10.41;100138.81;5090098;28;20084;-39
2023/05/16 08:44:03;;;;;;;3.63;1.45;;;;;;;38.84;10.89;100132.09;5069252;28;20829;-39
2023/05/16 08:46:31;;;;;;;3.60;1.60;;;;;;;39.60;10.62;100146.13;5088210;28;20040;-39
2023/05/16 08:48:59;;;;;;;5.93;1.73;;;;;;;38.80;11.35;100139.91;5076672;28;20503;-40
2023/05/16 08:51:27;;;;;;;10.57;6.70;;;;;;;39.62;11.12;100135.81;5072895;28;20044;-39
2023/05/16 08:53:58;;;;;;;15.55;9.23;;;;;;;40.20;10.50;100100.59;5072807;28;20035;-38
2023/05/16 08:56:25;;;;;;;10.70;4.07;;;;;;;40.63;10.59;100138.47;5062679;28;20093;-41
2023/05/16 08:58:53;;;;;;;3.13;2.17;;;;;;;41.05;10.43;100127.41;5074073;28;20039;-40
2023/05/16 09:01:21;;;;;;;6.78;2.42;;;;;;;41.35;10.60;100125.28;5058054;28;20108;-38
2023/05/16 09:03:47;;;;;;;;;;;;;;;41.49;10.71;100138.72;5091089;28;20043;-40
2023/05/16 09:06:14;;;;;;;2.17;1.70;;;;;;;41.11;10.60;100131.91;5091200;28;19928;-40
2023/05/16 09:08:41;;;;;;;5.95;1.63;;;;;;;41.17;10.11;100124.66;5072951;28;20040;-40
2023/05/16 09:11:08;;;;;;;5.23;2.70;;;;;;;41.20;10.17;100133.19;5090383;28;20040;-39
2023/05/16 09:13:34;;;;;;;4.73;2.17;;;;;;;39.38;11.03;100134.06;5091201;28;20127;-41
2023/05/16 09:16:11;;;;;;;8.32;2.05;;;;;;;38.61;11.52;100124.63;5072929;28;20063;-40
2023/05/16 09:18:38;;;;;;;3.97;2.97;;;;;;;38.90;11.64;100104.88;5079606;28;20051;-39
2023/05/16 09:21:06;;;;;;;8.02;2.92;;;;;;;39.94;11.37;100119.28;5081271;28;20092;-39
2023/05/16 09:23:33;;;;;;;4.72;1.50;;;;;;;40.34;11.03;100125.75;5082629;28;20043;-38
2023/05/16 09:25:59;;;;;;;2.65;1.45;;;;;;;40.46;10.42;100110.22;5082956;28;20042;-38
2023/05/16 09:28:25;;;;;;;5.90;1.60;;;;;;;40.81;10.66;100112.97;5098974;28;20043;-39
2023/05/16 09:30:53;;;;;;;5.53;1.70;;;;;;;40.34;10.46;100094.94;5082570;28;20067;-40
2023/05/16 09:33:22;;;;;;;9.95;3.72;;;;;;;41.06;10.43;100111.88;5100212;28;20059;-39
2023/05/16 09:35:59;;;;;;;2.85;1.30;;;;;;;41.26;9.81;100102.19;5097553;28;20028;-40
2023/05/16 09:38:27;;;;;;;5.68;2.53;;;;;;;41.28;10.56;100096.50;5092273;28;20040;-40
2023/05/16 09:40:54;;;;;;;7.45;1.65;;;;;;;40.05;10.44;100108.38;5090730;28;20040;-38
2023/05/16 09:43:25;;;;;;;7.78;4.10;;;;;;;38.82;10.97;100088.00;5100639;28;20047;-39
2023/05/16 09:45:51;;;;;;;8.25;2.78;;;;;;;39.99;10.57;100089.44;5093090;28;20170;-39
2023/05/16 09:48:17;;;;;;;6.90;2.20;;;;;;;41.35;10.49;100091.75;5089828;28;20055;-39
2023/05/16 09:50:51;;;;;;;6.80;1.65;;;;;;;42.27;9.81;100084.09;5110040;28;20523;-39
2023/05/16 09:53:18;;;;;;;4.43;1.60;;;;;;;41.07;9.93;100084.34;5110284;28;20039;-39
2023/05/16 09:55:44;;;;;;;8.07;1.50;;;;;;;41.46;9.72;100079.13;5099534;28;20036;-38
2023/05/16 09:58:10;;;;;;;10.57;1.85;;;;;;;40.93;9.72;100080.22;5071386;28;20047;-37
2023/05/16 10:00:36;;;;;;;6.78;2.08;;;;;;;40.96;10.13;100071.53;5089020;28;20044;-37
2023/05/16 10:03:03;;;;;;;9.00;1.85;;;;;;;40.43;10.13;100067.09;5056460;28;20028;-38
2023/05/16 10:05:30;;;;;;;10.00;2.08;;;;;;;39.59;10.96;100062.78;5088895;28;20097;-37
2023/05/16 10:07:56;;;;;;;6.63;1.60;;;;;;;40.53;10.50;100074.66;5068976;28;20031;-37
2023/05/16 10:10:23;;;;;;;6.90;1.70;;;;;;;41.62;10.28;100076.41;5083326;28;20035;-38
2023/05/16 10:12:50;;;;;;;4.10;1.63;;;;;;;42.04;9.60;100065.97;5089522;28;20074;-38
2023/05/16 10:15:17;;;;;;;7.07;1.70;;;;;;;42.07;9.68;100081.88;5099601;28;20042;-37
2023/05/16 10:17:45;;;;;;;1.90;1.40;;;;;;;40.69;9.93;100073.13;5090879;28;20134;-37
2023/05/16 10:20:11;;;;;;;3.75;1.58;;;;;;;40.72;10.31;100067.22;5070816;28;20087;-39
2023/05/16 10:22:42;;;;;;;3.28;1.45;;;;;;;39.78;10.42;100060.84;5071165;28;20039;-37
2023/05/16 10:25:16;;;;;;;4.75;1.70;;;;;;;38.07;10.94;100044.63;5089672;28;20050;-39
2023/05/16 10:27:42;;;;;;;8.60;1.65;;;;;;;37.37;11.37;100043.00;5071144;28;20422;-39
2023/05/16 10:30:09;;;;;;;3.67;1.27;;;;;;;38.25;11.36;100043.00;5070780;28;20154;-38
2023/05/16 10:32:36;;;;;;;3.03;1.50;;;;;;;39.29;10.96;100051.03;5089151;28;20047;-38
2023/05/16 10:35:05;;;;;;;3.15;1.80;;;;;;;38.32;11.20;100071.75;5058482;28;20415;-39
2023/05/16 10:37:32;;;;;;;4.60;1.80;;;;;;;37.20;11.87;100055.41;5037611;28;20044;-37
2023/05/16 10:40:00;;;;;;;6.35;1.80;;;;;;;37.17;12.10;100039.56;5072192;28;20511;-38
2023/05/16 10:42:26;;;;;;;5.30;1.80;;;;;;;38.74;11.45;100042.91;5063698;28;20052;-38
2023/05/16 10:45:08;;;;;;;4.82;2.10;;;;;;;39.63;10.74;100031.28;5070828;28;20032;-37
2023/05/16 10:47:34;;;;;;;8.02;3.65;;;;;;;40.02;10.90;100032.56;5078833;28;20044;-37
2023/05/16 10:50:00;;;;;;;10.70;6.75;;;;;;;40.12;10.45;100042.88;5069749;28;20085;-38
2023/05/16 10:52:35;;;;;;;8.98;5.80;;;;;;;37.87;11.27;100013.22;5091653;28;20059;-39
2023/05/16 10:55:03;;;;;;;9.18;5.28;;;;;;;37.40;11.43;100023.56;5088154;28;20075;-37
2023/05/16 10:57:32;;;;;;;9.05;6.10;;;;;;;36.73;12.15;100022.22;5070919;28;20046;-38
2023/05/16 11:00:00;;;;;;;;;;;;;;;37.78;11.99;100014.56;5097353;28;20039;-37
2023/05/16 11:02:33;;;;;;;6.78;2.78;;;;;;;37.99;11.56;100011.47;5096411;28;19962;-38
2023/05/16 11:05:01;;;;;;;3.00;2.47;;;;;;;37.86;11.77;100014.28;5069310;28;20047;-38
2023/05/16 11:07:33;;;;;;;13.07;3.78;;;;;;;37.71;11.60;99993.72;5072226;28;20036;-37
2023/05/16 11:10:06;;;;;;;4.00;3.60;;;;;;;37.98;12.07;100017.94;5087100;28;20462;-39
2023/05/16 11:12:37;;;;;;;7.68;5.57;;;;;;;37.32;12.04;100024.66;5095106;28;20047;-38
2023/05/16 11:15:16;;;;;;;9.23;3.75;;;;;;;36.32;12.46;99997.28;5056955;28;20189;-37
2023/05/16 11:17:43;;;;;;;7.68;5.22;;;;;;;37.33;12.32;100011.91;5085065;28;20042;-38
2023/05/16 11:20:28;;;;;;;11.70;6.00;;;;;;;37.01;12.26;100002.06;5079861;28;20038;-38
2023/05/16 11:23:16;;;;;;;8.13;5.18;;;;;;;37.30;12.02;100015.91;5068389;28;20056;-43